KSSC

Shaw AFB Airport

Sumter, South Carolina, USA
METAR KSSC 200056Z AUTO 00000KT 10SM CLR 04/M05 A3017 RMK AO2 SLP220 T00361046 $
Observed Flight Rules
Jan-20 @ 00:56 UTC (17 minutes ago) Visual Flight Rules
Wind Visibility Clouds
Calm 10 miles
  • Clear skies
Temperatures Readings
Current 4°C / 39°F
Dewpoint -5°C / 23°F
Humidity 52%
Altimeter 30.17" Hg
Pressure 1022 hPa
Elevation 74
METAR KSSC 200056Z AUTO 00000KT 10SM CLR 04/M05 A3017 RMK AO2 SLP220 T00361046 $
Observed Flight Rules
Jan-20 @ 00:56 UTC
(17 minutes ago)
VFR
Wind Visibility
Calm 10 miles
Clouds
  • Clear skies
Temperature Dewpoint
4°C / 39°F -5°C / 23°F
Humidity Altimeter Pressure
52% 30.17" Hg 1022 hPa